Latest Coastal Weather Observations for Port Hedland

IDW60701

Issued at 1:03 pm WST Sunday 28 August 2016 (issued every 10 minutes, with the page automatically refreshed every 10 minutes)

About coastal observations | Map of coastal stations | Coastal observations for WA | Marine services | Other Formats
Station Details ID: 004032 Name: PORT HEDLAND AIRPORT Lat: -20.37 Lon: 118.63 Height: 6.4 m
Data from the previous 72 hours. | See also: Recent months at Port Hedland
Date/Time
WST
Temp
°C
Wind Pressure Rain since
9am
mm
Weather Cloud Vis
km
Sea
Height
m
Swell
Dir  Spd
kts
Gust
kts
hPa Trend Height
m
Period
s
Dir
28/01:00pm 21.7 NW 9 12 1012.1 - 11.8 - Partly cloudy 10 - - - -
28/12:41pm 21.5 NW 7 9 1012.2 - 11.4 - Partly cloudy 8 - - - -
28/12:34pm 21.4 NW 7 8 1012.3 - 11.0 - Partly cloudy 7 - - - -
28/12:30pm 21.3 NW 7 11 1012.3 - 11.0 - Partly cloudy 6 - - - -
28/12:19pm 21.4 WNW 10 13 1012.6 - 10.2 - Partly cloudy 5 - - - -
28/12:16pm 21.3 WNW 11 13 1012.7 - 9.8 - Partly cloudy 6 - - - -
28/12:00pm 21.4 W 10 13 1012.9 - 8.8 - Cloudy 4 - - - -
28/11:30am 21.3 WNW 7 9 1013.0 - 5.4 - Partly cloudy 2 - - - -
28/11:11am 21.5 WNW 7 8 1013.4 - 2.4 - Partly cloudy 4 - - - -
28/11:00am 21.6 W 8 9 1013.4 - 1.4 - Partly cloudy 6 - - - -
28/10:51am 21.7 W 8 9 1013.4 - 1.0 - Partly cloudy 6 - - - -
28/10:30am 21.8 WSW 5 7 1013.5 - 1.0 - Partly cloudy 10 - - - -
28/10:00am 21.8 SW 7 10 1013.8 - 0.0 - Partly cloudy 10 - - - -
28/09:30am 21.9 WSW 8 9 1013.9 - 0.0 - Partly cloudy 10 - - - -
28/09:15am 21.9 W 8 10 1013.9 - 0.0 - Partly cloudy 10 - - - -
28/09:00am 21.7 NW 8 12 1013.8 - 2.2 - Cloudy 3 - - - -
28/08:52am 22.0 WNW 13 15 1013.7 - 0.8 - Partly cloudy 5 - - - -
28/08:30am 23.5 NNW 5 6 1013.5 - 0.0 - Cloudy 10 - - - -
28/08:00am 23.1 NNW 5 6 1013.2 - 0.0 - Cloudy 10 - - - -
28/07:30am 23.0 NNW 2 3 1012.9 - 0.0 - Cloudy 10 - - - -
28/07:00am 21.9 NW 4 4 1012.6 - 0.0 - Cloudy 10 - - - -
28/06:30am 21.2 NNW 5 5 1012.4 - 0.0 - Cloudy 10 - - - -
28/06:00am 20.9 NW 5 5 1012.1 - 0.0 - Cloudy 10 - - - -
28/05:30am 20.5 CALM 0 0 1011.9 - 0.0 - Cloudy 10 - - - -
28/05:00am 20.0 W 3 3 1011.7 - 0.0 - Cloudy 10 - - - -
28/04:30am 19.6 W 5 5 1011.7 - 0.0 - Partly cloudy 10 - - - -
28/04:00am 18.9 WNW 6 6 1011.7 - 0.0 - Partly cloudy 10 - - - -
28/03:30am 18.6 WNW 5 5 1011.7 - 0.0 - - 10 - - - -
28/03:00am 19.0 NW 5 6 1011.8 - 0.0 - - 10 - - - -
28/02:30am 18.9 NW 4 5 1012.0 - 0.0 - - 10 - - - -
28/02:00am 19.1 WNW 5 6 1012.1 - 0.0 - - 10 - - - -
28/01:30am 18.9 W 6 7 1012.5 - 0.0 - - 10 - - - -
28/01:00am 18.6 WNW 7 7 1012.6 - 0.0 - - 10 - - - -
28/12:30am 18.5 WNW 6 6 1012.8 - 0.0 - - 10 - - - -
28/12:00am 18.6 WNW 7 8 1012.8 - 0.0 - - 10 - - - -
 
Date/Time
WST
Temp
°C
Wind Pressure Rain since
9am
mm
Weather Cloud Vis
km
Sea
Height
m
Swell
Dir  Spd
kts
Gust
kts
hPa Trend Height
m
Period
s
Dir
27/11:30pm 18.8 NW 7 7 1012.7 - 0.0 - - 10 - - - -
27/11:00pm 19.1 NW 6 7 1013.0 - 0.0 - - 10 - - - -
27/10:30pm 19.4 NW 6 7 1013.1 - 0.0 - - 10 - - - -
27/10:00pm 19.9 NW 7 7 1013.1 - 0.0 - - 10 - - - -
27/09:30pm 20.7 N 7 8 1013.1 - 0.0 - - 10 - - - -
27/09:00pm 21.3 N 7 8 1013.4 - 0.0 - - 10 - - - -
27/08:30pm 21.5 N 6 7 1013.3 - 0.0 - Partly cloudy 10 - - - -
27/08:00pm 21.3 N 6 7 1013.1 - 0.0 - - 10 - - - -
27/07:30pm 21.8 N 6 7 1012.8 - 0.0 - - 10 - - - -
27/07:00pm 22.1 N 7 7 1012.6 - 0.0 - - 10 - - - -
27/06:30pm 22.8 NNW 8 10 1012.4 - 0.0 - - 10 - - - -
27/06:00pm 23.2 NNW 10 11 1012.1 - 0.0 - - 10 - - - -
27/05:30pm 24.0 NNW 12 15 1011.9 - 0.0 - - 10 - - - -
27/05:00pm 25.1 NNW 11 14 1011.8 - 0.0 - Partly cloudy 10 - - - -
27/04:30pm 25.9 NW 12 15 1011.5 - 0.0 - - 10 - - - -
27/04:00pm 26.3 NW 13 17 1011.3 - 0.0 - - 10 - - - -
27/03:30pm 26.6 NW 11 16 1011.3 - 0.0 - - 10 - - - -
27/03:00pm 26.9 NNW 14 18 1011.5 - 0.0 - - 10 - - - -
27/02:30pm 27.6 NW 14 18 1011.4 - 0.0 - - 10 - - - -
27/02:00pm 28.0 NNW 14 20 1011.7 - 0.0 - - 10 - - - -
27/01:30pm 28.3 WNW 15 22 1012.1 - 0.0 - - 10 - - - -
27/01:00pm 28.0 WNW 13 18 1012.6 - 0.0 - - 10 - - - -
27/12:30pm 27.7 NNW 13 16 1013.0 - 0.0 - - 10 - - - -
27/12:00pm 26.9 NNW 13 17 1013.7 - 0.0 - - 10 - - - -
27/11:30am 27.0 WNW 13 19 1014.3 - 0.0 - - 10 - - - -
27/11:00am 27.6 WNW 11 16 1014.9 - 0.0 - - 10 - - - -
27/10:30am 26.1 NW 9 14 1015.3 - 0.0 - - 10 - - - -
27/10:00am 25.6 W 9 13 1015.8 - 0.0 - - 10 - - - -
27/09:30am 24.5 WNW 8 12 1015.7 - 0.0 - - 10 - - - -
27/09:00am 24.0 WNW 6 8 1015.4 - 0.0 - - 10 - - - -
27/08:30am 22.0 SW 2 4 1015.1 - 0.0 - - 10 - - - -
27/08:00am 20.7 CALM 0 0 1014.9 - 0.0 - - 10 - - - -
27/07:30am 17.1 CALM 0 0 1014.7 - 0.0 - - 10 - - - -
27/07:00am 13.6 CALM 0 0 1014.4 - 0.0 - - 10 - - - -
27/06:30am 11.1 CALM 0 0 1014.1 - 0.0 - - 10 - - - -
27/06:00am 12.5 ENE 3 4 1014.2 - 0.0 - - 10 - - - -
27/05:30am 11.6 ENE 6 7 1013.9 - 0.0 - - 10 - - - -
27/05:00am 13.1 SSE 5 6 1013.3 - 0.0 - - 10 - - - -
27/04:30am 13.7 S 5 6 1012.8 - 0.0 - - 10 - - - -
27/04:00am 14.5 SSW 10 12 1012.2 - 0.0 - - 10 - - - -
27/03:30am 14.8 SSW 7 9 1012.2 - 0.0 - - 10 - - - -
27/03:00am 14.2 SSW 10 11 1012.1 - 0.0 - - 10 - - - -
27/02:30am 13.5 S 5 7 1012.2 - 0.0 - - 10 - - - -
27/02:00am 13.0 S 4 5 1012.7 - 0.0 - - 10 - - - -
27/01:30am 13.5 SE 4 5 1013.0 - 0.0 - - 10 - - - -
27/01:00am 13.8 SSE 4 6 1013.2 - 0.0 - - 10 - - - -
27/12:30am 13.1 WSW 3 4 1013.1 - 0.0 - - 10 - - - -
27/12:00am 14.8 SSW 5 6 1013.7 - 0.0 - - 10 - - - -
 
Date/Time
WST
Temp
°C
Wind Pressure Rain since
9am
mm
Weather Cloud Vis
km
Sea
Height
m
Swell
Dir  Spd
kts
Gust
kts
hPa Trend Height
m
Period
s
Dir
26/11:30pm 15.8 S 6 7 1014.2 - 0.0 - - 10 - - - -
26/11:00pm 15.8 S 6 7 1014.4 - 0.0 - - 10 - - - -
26/10:30pm 16.3 S 6 7 1014.5 - 0.0 - - 10 - - - -
26/10:00pm 15.7 S 5 6 1014.6 - 0.0 - - 10 - - - -
26/09:30pm 17.3 SSW 6 7 1014.8 - 0.0 - - 10 - - - -
26/09:00pm 16.9 W 6 6 1014.8 - 0.0 - - 10 - - - -
26/08:30pm 17.7 W 4 5 1014.6 - 0.0 - - 10 - - - -
26/08:00pm 18.9 WSW 3 3 1014.6 - 0.0 - - 10 - - - -
26/07:30pm 19.4 NNW 5 5 1014.4 - 0.0 - - 10 - - - -
26/07:00pm 20.8 N 5 6 1014.1 - 0.0 - - 10 - - - -
26/06:30pm 22.5 N 7 9 1013.6 - 0.0 - - 10 - - - -
26/06:00pm 23.2 N 9 12 1013.4 - 0.0 - - 10 - - - -
26/05:30pm 24.3 N 10 15 1013.3 - 0.0 - - 10 - - - -
26/05:00pm 25.4 N 9 11 1013.1 - 0.0 - - 10 - - - -
26/04:30pm 26.2 N 11 15 1013.0 - 0.0 - - 10 - - - -
26/04:00pm 26.0 N 13 15 1012.8 - 0.0 - - 10 - - - -
26/03:30pm 25.5 N 13 16 1012.9 - 0.0 - - 10 - - - -
26/03:00pm 26.6 N 12 15 1013.1 - 0.0 - - 10 - - - -
26/02:30pm 26.5 N 13 16 1013.4 - 0.0 - - 10 - - - -
26/02:00pm 25.9 N 14 18 1013.7 - 0.0 - - 10 - - - -
26/01:30pm 26.1 N 15 19 1014.1 - 0.0 - - 10 - - - -
26/01:00pm 26.5 N 15 19 1014.5 - 0.0 - - 10 - - - -
26/12:30pm 28.6 NE 14 19 1014.9 - 0.0 - - 10 - - - -
26/12:00pm 28.3 ENE 14 19 1015.4 - 0.0 - - 10 - - - -
26/11:30am 28.0 ENE 16 20 1015.9 - 0.0 - - 10 - - - -
26/11:00am 27.0 ENE 17 26 1016.4 - 0.0 - - 10 - - - -
26/10:30am 26.1 E 19 25 1016.7 - 0.0 - - 10 - - - -
26/10:00am 24.8 E 21 26 1017.2 - 0.0 - - 10 - - - -
26/09:30am 24.7 E 22 28 1017.2 - 0.0 - - 10 - - - -
26/09:00am 23.3 E 23 30 1017.1 - 0.0 - - 10 - - - -
26/08:30am 21.9 ESE 22 29 1017.0 - 0.0 - - 10 - - - -
26/08:00am 20.7 E 19 24 1016.8 - 0.0 - - 10 - - - -
26/07:30am 19.3 ESE 18 24 1016.6 - 0.0 - - 10 - - - -
26/07:00am 17.9 ESE 12 15 1016.3 - 0.0 - - 10 - - - -
26/06:30am 15.9 ESE 10 13 1015.9 - 0.0 - - 10 - - - -
26/06:00am 15.3 SE 9 11 1015.7 - 0.0 - - 10 - - - -
26/05:30am 15.4 SE 9 11 1015.3 - 0.0 - - 10 - - - -
26/05:00am 15.1 SE 9 11 1015.0 - 0.0 - - 10 - - - -
26/04:30am 14.9 SE 9 10 1014.8 - 0.0 - - 10 - - - -
26/04:00am 14.5 SE 9 11 1014.6 - 0.0 - - 10 - - - -
26/03:30am 12.6 SE 5 7 1014.7 - 0.0 - - 10 - - - -
26/03:00am 13.0 SSE 5 6 1014.7 - 0.0 - - 10 - - - -
26/02:30am 13.7 S 5 6 1014.9 - 0.0 - - 10 - - - -
26/02:00am 14.3 S 6 8 1015.0 - 0.0 - - 10 - - - -
26/01:30am 14.9 SSE 6 8 1015.2 - 0.0 - - 10 - - - -
26/01:00am 14.3 S 6 7 1015.5 - 0.0 - - 10 - - - -
26/12:30am 14.2 S 6 8 1015.6 - 0.0 - - 10 - - - -
26/12:00am 14.3 S 7 9 1015.9 - 0.0 - - 10 - - - -
 
Date/Time
WST
Temp
°C
Wind Pressure Rain since
9am
mm
Weather Cloud Vis
km
Sea
Height
m
Swell
Dir  Spd
kts
Gust
kts
hPa Trend Height
m
Period
s
Dir
25/11:30pm 14.7 SSE 7 9 1016.0 - 0.0 - - 10 - - - -
25/11:00pm 15.4 SSE 7 9 1016.4 - 0.0 - - 10 - - - -
25/10:30pm 15.8 S 6 8 1016.4 - 0.0 - - 10 - - - -
25/10:00pm 16.8 S 5 6 1016.4 - 0.0 - - 10 - - - -
25/09:30pm 17.1 S 5 7 1016.5 - 0.0 - - 10 - - - -
25/09:00pm 17.3 S 5 5 1016.6 - 0.0 - - 10 - - - -
25/08:30pm 17.8 NW 4 5 1016.5 - 0.0 - - 10 - - - -
25/08:00pm 18.9 CALM 0 0 1016.4 - 0.0 - - 10 - - - -
25/07:30pm 18.8 NW 2 3 1016.0 - 0.0 - - 10 - - - -
25/07:00pm 19.9 CALM 0 0 1015.7 - 0.0 - - 10 - - - -
25/06:30pm 20.3 NW 1 3 1015.5 - 0.0 - - 10 - - - -
25/06:00pm 21.6 N 5 6 1015.2 - 0.0 - - 10 - - - -
25/05:30pm 23.5 N 6 8 1015.0 - 0.0 - - 10 - - - -
25/05:00pm 24.1 N 9 13 1014.7 - 0.0 - - 10 - - - -
25/04:30pm 24.5 N 11 14 1014.4 - 0.0 - - 10 - - - -
25/04:00pm 25.3 N 13 16 1014.4 - 0.0 - - 10 - - - -
25/03:30pm 25.9 N 14 18 1014.4 - 0.0 - - 10 - - - -
25/03:00pm 25.8 N 15 18 1014.4 - 0.0 - - 10 - - - -
25/02:30pm 26.3 N 13 17 1014.4 - 0.0 - - 10 - - - -
25/02:00pm 28.9 ESE 11 19 1014.5 - 0.0 - - 10 - - - -
25/01:30pm 28.3 E 12 17 1014.9 - 0.0 - - 10 - - - -

Other Formats:

Comma delimited format used in spreadsheet applications
http://www.bom.gov.au/fwo/IDW60701/IDW60701.94312.axf

JavaScript Object Notation format (JSON) in row-major order
http://www.bom.gov.au/fwo/IDW60701/IDW60701.94312.json